sensor_id;sensor_type;location;lat;lon;timestamp;P1;durP1;ratioP1;P2;durP2;ratioP2
60239;SDS011;46102;39.012;-7.064;2022-12-18T00:00:42;6.72;;;4.05;;
60239;SDS011;46102;39.012;-7.064;2022-12-18T00:02:44;3.08;;;2.88;;
60239;SDS011;46102;39.012;-7.064;2022-12-18T00:04:44;7.60;;;3.97;;
60239;SDS011;46102;39.012;-7.064;2022-12-18T00:06:45;7.63;;;3.65;;
60239;SDS011;46102;39.012;-7.064;2022-12-18T00:08:46;8.25;;;3.85;;
60239;SDS011;46102;39.012;-7.064;2022-12-18T00:10:47;7.38;;;2.97;;
60239;SDS011;46102;39.012;-7.064;2022-12-18T00:12:48;7.03;;;3.00;;
60239;SDS011;46102;39.012;-7.064;2022-12-18T00:14:49;4.30;;;2.50;;
60239;SDS011;46102;39.012;-7.064;2022-12-18T00:16:49;3.28;;;2.95;;
60239;SDS011;46102;39.012;-7.064;2022-12-18T00:18:52;4.40;;;2.40;;
60239;SDS011;46102;39.012;-7.064;2022-12-18T00:20:57;7.30;;;2.63;;
60239;SDS011;46102;39.012;-7.064;2022-12-18T00:23:00;2.80;;;2.60;;
60239;SDS011;46102;39.012;-7.064;2022-12-18T00:25:01;5.72;;;3.47;;
60239;SDS011;46102;39.012;-7.064;2022-12-18T00:27:02;4.05;;;2.88;;
60239;SDS011;46102;39.012;-7.064;2022-12-18T00:29:04;7.03;;;3.08;;
60239;SDS011;46102;39.012;-7.064;2022-12-18T00:31:07;6.97;;;2.90;;
60239;SDS011;46102;39.012;-7.064;2022-12-18T00:33:11;9.02;;;3.58;;
60239;SDS011;46102;39.012;-7.064;2022-12-18T00:35:11;5.97;;;4.68;;
60239;SDS011;46102;39.012;-7.064;2022-12-18T00:37:12;9.35;;;5.93;;
60239;SDS011;46102;39.012;-7.064;2022-12-18T00:39:13;6.82;;;5.05;;
60239;SDS011;46102;39.012;-7.064;2022-12-18T00:41:14;9.55;;;5.70;;
60239;SDS011;46102;39.012;-7.064;2022-12-18T00:43:35;8.63;;;4.57;;
60239;SDS011;46102;39.012;-7.064;2022-12-18T00:45:36;7.22;;;4.53;;
60239;SDS011;46102;39.012;-7.064;2022-12-18T00:47:37;7.50;;;4.45;;
60239;SDS011;46102;39.012;-7.064;2022-12-18T00:49:38;4.72;;;4.30;;
60239;SDS011;46102;39.012;-7.064;2022-12-18T00:51:38;5.80;;;4.18;;
60239;SDS011;46102;39.012;-7.064;2022-12-18T00:53:39;7.68;;;4.70;;
60239;SDS011;46102;39.012;-7.064;2022-12-18T00:55:41;9.32;;;5.07;;
60239;SDS011;46102;39.012;-7.064;2022-12-18T00:57:43;9.07;;;5.43;;
60239;SDS011;46102;39.012;-7.064;2022-12-18T00:59:44;7.38;;;5.40;;
60239;SDS011;46102;39.012;-7.064;2022-12-18T01:01:45;7.85;;;4.50;;
60239;SDS011;46102;39.012;-7.064;2022-12-18T01:03:46;4.40;;;4.00;;
60239;SDS011;46102;39.012;-7.064;2022-12-18T01:05:47;8.20;;;4.35;;
60239;SDS011;46102;39.012;-7.064;2022-12-18T01:07:48;9.13;;;5.82;;
60239;SDS011;46102;39.012;-7.064;2022-12-18T01:09:48;11.30;;;5.60;;
60239;SDS011;46102;39.012;-7.064;2022-12-18T01:11:49;12.95;;;7.07;;
60239;SDS011;46102;39.012;-7.064;2022-12-18T01:13:51;17.48;;;7.55;;
60239;SDS011;46102;39.012;-7.064;2022-12-18T01:15:52;12.15;;;8.10;;
60239;SDS011;46102;39.012;-7.064;2022-12-18T01:17:53;12.13;;;6.80;;
60239;SDS011;46102;39.012;-7.064;2022-12-18T01:19:54;10.80;;;6.35;;
60239;SDS011;46102;39.012;-7.064;2022-12-18T01:21:55;11.90;;;5.93;;
60239;SDS011;46102;39.012;-7.064;2022-12-18T01:23:56;5.35;;;4.85;;
60239;SDS011;46102;39.012;-7.064;2022-12-18T01:25:57;5.82;;;4.75;;
60239;SDS011;46102;39.012;-7.064;2022-12-18T01:27:58;6.20;;;4.57;;
60239;SDS011;46102;39.012;-7.064;2022-12-18T01:29:59;8.20;;;4.85;;
60239;SDS011;46102;39.012;-7.064;2022-12-18T01:32:00;6.13;;;4.70;;
60239;SDS011;46102;39.012;-7.064;2022-12-18T01:34:04;5.80;;;4.80;;
60239;SDS011;46102;39.012;-7.064;2022-12-18T01:36:05;11.32;;;6.40;;
60239;SDS011;46102;39.012;-7.064;2022-12-18T01:38:06;7.65;;;5.82;;
60239;SDS011;46102;39.012;-7.064;2022-12-18T01:40:07;6.30;;;5.70;;
60239;SDS011;46102;39.012;-7.064;2022-12-18T01:42:10;12.48;;;6.88;;
60239;SDS011;46102;39.012;-7.064;2022-12-18T01:46:47;8.43;;;7.47;;
60239;SDS011;46102;39.012;-7.064;2022-12-18T01:48:48;9.35;;;7.15;;
60239;SDS011;46102;39.012;-7.064;2022-12-18T01:50:54;7.22;;;6.38;;
60239;SDS011;46102;39.012;-7.064;2022-12-18T01:52:58;7.43;;;5.38;;
60239;SDS011;46102;39.012;-7.064;2022-12-18T01:55:03;5.97;;;5.07;;
60239;SDS011;46102;39.012;-7.064;2022-12-18T01:57:05;6.32;;;4.43;;
60239;SDS011;46102;39.012;-7.064;2022-12-18T01:59:06;9.32;;;4.90;;
60239;SDS011;46102;39.012;-7.064;2022-12-18T02:01:11;5.88;;;4.75;;
60239;SDS011;46102;39.012;-7.064;2022-12-18T02:03:11;6.45;;;4.30;;
60239;SDS011;46102;39.012;-7.064;2022-12-18T02:05:13;5.90;;;5.32;;
60239;SDS011;46102;39.012;-7.064;2022-12-18T02:07:25;6.70;;;4.97;;
60239;SDS011;46102;39.012;-7.064;2022-12-18T02:09:30;8.07;;;4.90;;
60239;SDS011;46102;39.012;-7.064;2022-12-18T02:11:41;7.15;;;4.65;;
60239;SDS011;46102;39.012;-7.064;2022-12-18T02:14:00;4.40;;;4.00;;
60239;SDS011;46102;39.012;-7.064;2022-12-18T02:18:35;6.15;;;4.38;;
60239;SDS011;46102;39.012;-7.064;2022-12-18T02:20:45;10.45;;;3.95;;
60239;SDS011;46102;39.012;-7.064;2022-12-18T02:27:35;8.52;;;4.63;;
60239;SDS011;46102;39.012;-7.064;2022-12-18T02:29:44;4.03;;;3.65;;
60239;SDS011;46102;39.012;-7.064;2022-12-18T02:31:54;6.32;;;3.60;;
60239;SDS011;46102;39.012;-7.064;2022-12-18T02:34:00;11.48;;;4.20;;
60239;SDS011;46102;39.012;-7.064;2022-12-18T02:36:10;8.10;;;4.32;;
60239;SDS011;46102;39.012;-7.064;2022-12-18T02:38:13;8.43;;;4.47;;
60239;SDS011;46102;39.012;-7.064;2022-12-18T02:40:19;7.90;;;4.78;;
60239;SDS011;46102;39.012;-7.064;2022-12-18T02:42:22;6.22;;;4.18;;
60239;SDS011;46102;39.012;-7.064;2022-12-18T02:44:23;6.43;;;4.07;;
60239;SDS011;46102;39.012;-7.064;2022-12-18T02:46:41;10.60;;;4.38;;
60239;SDS011;46102;39.012;-7.064;2022-12-18T02:48:48;7.65;;;4.90;;
60239;SDS011;46102;39.012;-7.064;2022-12-18T02:51:05;7.13;;;4.35;;
60239;SDS011;46102;39.012;-7.064;2022-12-18T03:00:14;10.00;;;5.07;;
60239;SDS011;46102;39.012;-7.064;2022-12-18T03:05:04;7.35;;;4.72;;
60239;SDS011;46102;39.012;-7.064;2022-12-18T03:07:18;5.65;;;4.15;;
60239;SDS011;46102;39.012;-7.064;2022-12-18T03:09:31;7.82;;;4.22;;
60239;SDS011;46102;39.012;-7.064;2022-12-18T03:11:37;7.53;;;4.80;;
60239;SDS011;46102;39.012;-7.064;2022-12-18T03:14:00;7.17;;;3.87;;
60239;SDS011;46102;39.012;-7.064;2022-12-18T03:16:03;9.15;;;4.63;;
60239;SDS011;46102;39.012;-7.064;2022-12-18T03:18:09;6.75;;;4.78;;
60239;SDS011;46102;39.012;-7.064;2022-12-18T03:20:14;8.25;;;4.88;;
60239;SDS011;46102;39.012;-7.064;2022-12-18T03:22:17;6.13;;;4.70;;
60239;SDS011;46102;39.012;-7.064;2022-12-18T03:24:24;7.55;;;4.15;;
60239;SDS011;46102;39.012;-7.064;2022-12-18T03:26:29;5.18;;;4.68;;
60239;SDS011;46102;39.012;-7.064;2022-12-18T03:28:35;6.60;;;4.22;;
60239;SDS011;46102;39.012;-7.064;2022-12-18T03:30:41;5.90;;;4.70;;
60239;SDS011;46102;39.012;-7.064;2022-12-18T03:32:50;9.55;;;4.10;;
60239;SDS011;46102;39.012;-7.064;2022-12-18T03:34:57;6.05;;;4.28;;
60239;SDS011;46102;39.012;-7.064;2022-12-18T03:37:06;7.10;;;4.18;;
60239;SDS011;46102;39.012;-7.064;2022-12-18T03:39:08;8.32;;;4.70;;
60239;SDS011;46102;39.012;-7.064;2022-12-18T03:41:19;12.00;;;4.15;;
60239;SDS011;46102;39.012;-7.064;2022-12-18T03:43:53;6.63;;;4.38;;
60239;SDS011;46102;39.012;-7.064;2022-12-18T03:48:42;9.25;;;3.90;;
60239;SDS011;46102;39.012;-7.064;2022-12-18T03:50:56;7.68;;;4.20;;
60239;SDS011;46102;39.012;-7.064;2022-12-18T03:55:19;6.97;;;3.95;;
60239;SDS011;46102;39.012;-7.064;2022-12-18T03:57:28;6.28;;;3.38;;
60239;SDS011;46102;39.012;-7.064;2022-12-18T03:59:32;5.87;;;3.17;;
60239;SDS011;46102;39.012;-7.064;2022-12-18T04:01:36;7.68;;;3.38;;
60239;SDS011;46102;39.012;-7.064;2022-12-18T04:03:41;4.22;;;3.42;;
60239;SDS011;46102;39.012;-7.064;2022-12-18T04:05:44;4.30;;;3.70;;
60239;SDS011;46102;39.012;-7.064;2022-12-18T04:07:49;4.03;;;3.60;;
60239;SDS011;46102;39.012;-7.064;2022-12-18T04:09:52;4.13;;;3.53;;
60239;SDS011;46102;39.012;-7.064;2022-12-18T04:11:57;4.13;;;3.33;;
60239;SDS011;46102;39.012;-7.064;2022-12-18T04:13:58;7.25;;;3.50;;
60239;SDS011;46102;39.012;-7.064;2022-12-18T04:15:58;4.35;;;3.35;;
60239;SDS011;46102;39.012;-7.064;2022-12-18T04:17:59;5.75;;;3.45;;
60239;SDS011;46102;39.012;-7.064;2022-12-18T04:20:09;5.65;;;4.85;;
60239;SDS011;46102;39.012;-7.064;2022-12-18T04:22:13;12.80;;;4.03;;
60239;SDS011;46102;39.012;-7.064;2022-12-18T04:24:18;4.20;;;3.33;;
60239;SDS011;46102;39.012;-7.064;2022-12-18T04:26:28;6.72;;;3.55;;
60239;SDS011;46102;39.012;-7.064;2022-12-18T04:28:43;4.50;;;3.38;;
60239;SDS011;46102;39.012;-7.064;2022-12-18T04:30:44;6.32;;;3.65;;
60239;SDS011;46102;39.012;-7.064;2022-12-18T04:32:45;8.50;;;3.95;;
60239;SDS011;46102;39.012;-7.064;2022-12-18T04:34:46;10.23;;;4.10;;
60239;SDS011;46102;39.012;-7.064;2022-12-18T04:36:47;6.57;;;4.20;;
60239;SDS011;46102;39.012;-7.064;2022-12-18T04:38:48;5.80;;;4.00;;
60239;SDS011;46102;39.012;-7.064;2022-12-18T04:40:51;5.30;;;3.85;;
60239;SDS011;46102;39.012;-7.064;2022-12-18T04:42:58;7.53;;;3.90;;
60239;SDS011;46102;39.012;-7.064;2022-12-18T04:44:59;6.60;;;3.42;;
60239;SDS011;46102;39.012;-7.064;2022-12-18T04:47:00;3.72;;;3.30;;
60239;SDS011;46102;39.012;-7.064;2022-12-18T04:49:01;8.60;;;3.58;;
60239;SDS011;46102;39.012;-7.064;2022-12-18T04:51:01;6.82;;;3.42;;
60239;SDS011;46102;39.012;-7.064;2022-12-18T04:53:03;5.20;;;4.40;;
60239;SDS011;46102;39.012;-7.064;2022-12-18T04:55:04;5.78;;;3.63;;
60239;SDS011;46102;39.012;-7.064;2022-12-18T04:57:05;6.03;;;3.65;;
60239;SDS011;46102;39.012;-7.064;2022-12-18T04:59:05;6.03;;;3.40;;
60239;SDS011;46102;39.012;-7.064;2022-12-18T05:01:06;5.00;;;3.67;;
60239;SDS011;46102;39.012;-7.064;2022-12-18T05:03:07;8.20;;;3.60;;
60239;SDS011;46102;39.012;-7.064;2022-12-18T05:05:08;5.53;;;3.33;;
60239;SDS011;46102;39.012;-7.064;2022-12-18T05:07:09;6.40;;;3.13;;
60239;SDS011;46102;39.012;-7.064;2022-12-18T05:09:10;4.70;;;3.72;;
60239;SDS011;46102;39.012;-7.064;2022-12-18T05:11:12;3.83;;;3.42;;
60239;SDS011;46102;39.012;-7.064;2022-12-18T05:13:15;6.80;;;3.30;;
60239;SDS011;46102;39.012;-7.064;2022-12-18T05:15:16;5.13;;;3.72;;
60239;SDS011;46102;39.012;-7.064;2022-12-18T05:17:17;5.75;;;3.20;;
60239;SDS011;46102;39.012;-7.064;2022-12-18T05:19:18;7.03;;;3.22;;
60239;SDS011;46102;39.012;-7.064;2022-12-18T05:21:18;7.22;;;3.88;;
60239;SDS011;46102;39.012;-7.064;2022-12-18T05:23:20;4.68;;;3.33;;
60239;SDS011;46102;39.012;-7.064;2022-12-18T05:25:23;5.47;;;3.60;;
60239;SDS011;46102;39.012;-7.064;2022-12-18T05:27:24;3.45;;;3.15;;
60239;SDS011;46102;39.012;-7.064;2022-12-18T05:29:25;7.05;;;3.42;;
60239;SDS011;46102;39.012;-7.064;2022-12-18T05:31:25;5.80;;;3.50;;
60239;SDS011;46102;39.012;-7.064;2022-12-18T05:33:27;6.00;;;4.28;;
60239;SDS011;46102;39.012;-7.064;2022-12-18T05:35:30;9.55;;;4.00;;
60239;SDS011;46102;39.012;-7.064;2022-12-18T05:37:30;6.70;;;4.30;;
60239;SDS011;46102;39.012;-7.064;2022-12-18T05:39:31;9.60;;;4.25;;
60239;SDS011;46102;39.012;-7.064;2022-12-18T05:41:32;6.55;;;3.45;;
60239;SDS011;46102;39.012;-7.064;2022-12-18T05:43:36;7.72;;;4.07;;
60239;SDS011;46102;39.012;-7.064;2022-12-18T05:45:38;5.20;;;3.90;;
60239;SDS011;46102;39.012;-7.064;2022-12-18T05:47:39;3.67;;;3.38;;
60239;SDS011;46102;39.012;-7.064;2022-12-18T05:49:39;9.43;;;3.97;;
60239;SDS011;46102;39.012;-7.064;2022-12-18T05:51:40;5.40;;;3.78;;
60239;SDS011;46102;39.012;-7.064;2022-12-18T05:53:41;3.78;;;3.47;;
60239;SDS011;46102;39.012;-7.064;2022-12-18T05:55:43;7.90;;;4.20;;
60239;SDS011;46102;39.012;-7.064;2022-12-18T05:57:44;8.35;;;3.63;;
60239;SDS011;46102;39.012;-7.064;2022-12-18T05:59:45;9.18;;;3.90;;
60239;SDS011;46102;39.012;-7.064;2022-12-18T06:01:46;4.80;;;3.58;;
60239;SDS011;46102;39.012;-7.064;2022-12-18T06:03:46;8.65;;;3.95;;
60239;SDS011;46102;39.012;-7.064;2022-12-18T06:05:47;6.30;;;3.70;;
60239;SDS011;46102;39.012;-7.064;2022-12-18T06:07:48;5.72;;;4.22;;
60239;SDS011;46102;39.012;-7.064;2022-12-18T06:09:48;4.22;;;3.58;;
60239;SDS011;46102;39.012;-7.064;2022-12-18T06:11:50;4.85;;;3.92;;
60239;SDS011;46102;39.012;-7.064;2022-12-18T06:13:52;4.13;;;3.25;;
60239;SDS011;46102;39.012;-7.064;2022-12-18T06:15:54;5.75;;;3.90;;
60239;SDS011;46102;39.012;-7.064;2022-12-18T06:17:55;9.93;;;3.83;;
60239;SDS011;46102;39.012;-7.064;2022-12-18T06:19:56;5.82;;;3.90;;
60239;SDS011;46102;39.012;-7.064;2022-12-18T06:21:57;6.50;;;4.22;;
60239;SDS011;46102;39.012;-7.064;2022-12-18T06:23:59;4.22;;;3.83;;
60239;SDS011;46102;39.012;-7.064;2022-12-18T06:26:04;9.02;;;4.00;;
60239;SDS011;46102;39.012;-7.064;2022-12-18T06:28:06;5.50;;;3.88;;
60239;SDS011;46102;39.012;-7.064;2022-12-18T06:30:07;6.68;;;3.85;;
60239;SDS011;46102;39.012;-7.064;2022-12-18T06:32:08;6.47;;;4.15;;
60239;SDS011;46102;39.012;-7.064;2022-12-18T06:34:09;7.78;;;4.10;;
60239;SDS011;46102;39.012;-7.064;2022-12-18T06:36:11;9.27;;;4.45;;
60239;SDS011;46102;39.012;-7.064;2022-12-18T06:38:13;7.30;;;4.05;;
60239;SDS011;46102;39.012;-7.064;2022-12-18T06:40:13;4.35;;;3.95;;
60239;SDS011;46102;39.012;-7.064;2022-12-18T06:42:14;5.03;;;3.90;;
60239;SDS011;46102;39.012;-7.064;2022-12-18T06:44:15;6.22;;;4.28;;
60239;SDS011;46102;39.012;-7.064;2022-12-18T06:46:16;4.88;;;4.00;;
60239;SDS011;46102;39.012;-7.064;2022-12-18T06:48:16;10.00;;;4.18;;
60239;SDS011;46102;39.012;-7.064;2022-12-18T06:50:17;4.32;;;3.92;;
60239;SDS011;46102;39.012;-7.064;2022-12-18T06:52:18;5.22;;;4.22;;
60239;SDS011;46102;39.012;-7.064;2022-12-18T06:54:18;7.75;;;3.92;;
60239;SDS011;46102;39.012;-7.064;2022-12-18T06:56:19;11.52;;;4.15;;
60239;SDS011;46102;39.012;-7.064;2022-12-18T06:58:20;4.25;;;3.85;;
60239;SDS011;46102;39.012;-7.064;2022-12-18T07:00:21;5.38;;;3.88;;
60239;SDS011;46102;39.012;-7.064;2022-12-18T07:02:21;3.72;;;3.40;;
60239;SDS011;46102;39.012;-7.064;2022-12-18T07:04:26;7.43;;;4.28;;
60239;SDS011;46102;39.012;-7.064;2022-12-18T07:06:28;8.45;;;3.63;;
60239;SDS011;46102;39.012;-7.064;2022-12-18T07:08:29;5.47;;;4.10;;
60239;SDS011;46102;39.012;-7.064;2022-12-18T07:10:31;7.25;;;3.28;;
60239;SDS011;46102;39.012;-7.064;2022-12-18T07:12:31;7.00;;;3.60;;
60239;SDS011;46102;39.012;-7.064;2022-12-18T07:14:32;7.30;;;3.40;;
60239;SDS011;46102;39.012;-7.064;2022-12-18T07:16:33;6.55;;;3.53;;
60239;SDS011;46102;39.012;-7.064;2022-12-18T07:18:34;4.65;;;4.18;;
60239;SDS011;46102;39.012;-7.064;2022-12-18T07:20:35;7.03;;;3.88;;
60239;SDS011;46102;39.012;-7.064;2022-12-18T07:22:36;7.93;;;3.33;;
60239;SDS011;46102;39.012;-7.064;2022-12-18T07:24:37;4.43;;;3.60;;
60239;SDS011;46102;39.012;-7.064;2022-12-18T07:26:38;4.18;;;2.97;;
60239;SDS011;46102;39.012;-7.064;2022-12-18T07:28:39;7.00;;;3.15;;
60239;SDS011;46102;39.012;-7.064;2022-12-18T07:30:41;5.47;;;3.80;;
60239;SDS011;46102;39.012;-7.064;2022-12-18T07:32:42;3.75;;;3.45;;
60239;SDS011;46102;39.012;-7.064;2022-12-18T07:34:43;9.95;;;3.33;;
60239;SDS011;46102;39.012;-7.064;2022-12-18T07:36:43;3.70;;;3.15;;
60239;SDS011;46102;39.012;-7.064;2022-12-18T07:38:46;6.18;;;3.75;;
60239;SDS011;46102;39.012;-7.064;2022-12-18T07:40:47;4.45;;;2.95;;
60239;SDS011;46102;39.012;-7.064;2022-12-18T07:42:48;3.97;;;3.55;;
60239;SDS011;46102;39.012;-7.064;2022-12-18T07:44:49;6.07;;;3.70;;
60239;SDS011;46102;39.012;-7.064;2022-12-18T07:46:49;3.63;;;3.28;;
60239;SDS011;46102;39.012;-7.064;2022-12-18T07:48:50;4.63;;;3.67;;
60239;SDS011;46102;39.012;-7.064;2022-12-18T07:50:51;4.50;;;3.33;;
60239;SDS011;46102;39.012;-7.064;2022-12-18T07:52:52;4.20;;;3.30;;
60239;SDS011;46102;39.012;-7.064;2022-12-18T07:54:53;5.30;;;3.42;;
60239;SDS011;46102;39.012;-7.064;2022-12-18T07:56:53;9.23;;;3.45;;
60239;SDS011;46102;39.012;-7.064;2022-12-18T07:58:54;3.58;;;3.08;;
60239;SDS011;46102;39.012;-7.064;2022-12-18T08:01:02;5.68;;;3.67;;
60239;SDS011;46102;39.012;-7.064;2022-12-18T08:03:06;3.30;;;3.00;;
60239;SDS011;46102;39.012;-7.064;2022-12-18T08:05:07;7.05;;;3.22;;
60239;SDS011;46102;39.012;-7.064;2022-12-18T08:07:08;5.20;;;3.33;;
60239;SDS011;46102;39.012;-7.064;2022-12-18T08:09:09;7.28;;;3.17;;
60239;SDS011;46102;39.012;-7.064;2022-12-18T08:11:10;3.28;;;3.00;;
60239;SDS011;46102;39.012;-7.064;2022-12-18T08:13:11;5.78;;;2.78;;
60239;SDS011;46102;39.012;-7.064;2022-12-18T08:15:12;3.55;;;3.25;;
60239;SDS011;46102;39.012;-7.064;2022-12-18T08:17:12;9.25;;;3.45;;
60239;SDS011;46102;39.012;-7.064;2022-12-18T08:19:13;5.97;;;3.65;;
60239;SDS011;46102;39.012;-7.064;2022-12-18T08:21:16;3.53;;;2.45;;
60239;SDS011;46102;39.012;-7.064;2022-12-18T08:23:21;5.90;;;2.97;;
60239;SDS011;46102;39.012;-7.064;2022-12-18T08:25:22;5.82;;;3.25;;
60239;SDS011;46102;39.012;-7.064;2022-12-18T08:27:23;4.57;;;2.50;;
60239;SDS011;46102;39.012;-7.064;2022-12-18T08:29:23;4.57;;;2.92;;
60239;SDS011;46102;39.012;-7.064;2022-12-18T08:31:24;3.75;;;2.70;;
60239;SDS011;46102;39.012;-7.064;2022-12-18T08:33:26;5.88;;;2.95;;
60239;SDS011;46102;39.012;-7.064;2022-12-18T08:35:27;4.32;;;2.35;;
60239;SDS011;46102;39.012;-7.064;2022-12-18T08:37:28;3.33;;;2.63;;
60239;SDS011;46102;39.012;-7.064;2022-12-18T08:39:29;5.05;;;2.58;;
60239;SDS011;46102;39.012;-7.064;2022-12-18T08:41:29;3.30;;;2.28;;
60239;SDS011;46102;39.012;-7.064;2022-12-18T08:43:30;3.17;;;2.47;;
60239;SDS011;46102;39.012;-7.064;2022-12-18T08:45:49;2.88;;;2.63;;
60239;SDS011;46102;39.012;-7.064;2022-12-18T08:47:50;4.22;;;2.38;;
60239;SDS011;46102;39.012;-7.064;2022-12-18T08:49:51;2.75;;;2.08;;
60239;SDS011;46102;39.012;-7.064;2022-12-18T08:51:54;2.38;;;1.67;;
60239;SDS011;46102;39.012;-7.064;2022-12-18T08:53:55;1.67;;;1.58;;
60239;SDS011;46102;39.012;-7.064;2022-12-18T08:55:56;2.13;;;1.67;;
60239;SDS011;46102;39.012;-7.064;2022-12-18T08:57:57;2.35;;;1.60;;
60239;SDS011;46102;39.012;-7.064;2022-12-18T08:59:58;3.97;;;2.08;;
60239;SDS011;46102;39.012;-7.064;2022-12-18T09:01:58;2.28;;;2.05;;
60239;SDS011;46102;39.012;-7.064;2022-12-18T09:03:59;3.95;;;2.22;;
60239;SDS011;46102;39.012;-7.064;2022-12-18T09:06:00;6.55;;;1.83;;
60239;SDS011;46102;39.012;-7.064;2022-12-18T09:08:01;3.63;;;2.33;;
60239;SDS011;46102;39.012;-7.064;2022-12-18T09:10:01;2.53;;;2.30;;
60239;SDS011;46102;39.012;-7.064;2022-12-18T09:12:02;2.10;;;2.00;;
60239;SDS011;46102;39.012;-7.064;2022-12-18T09:14:03;3.75;;;1.90;;
60239;SDS011;46102;39.012;-7.064;2022-12-18T09:16:04;2.42;;;2.20;;
60239;SDS011;46102;39.012;-7.064;2022-12-18T09:18:05;2.90;;;1.65;;
60239;SDS011;46102;39.012;-7.064;2022-12-18T09:20:06;3.33;;;1.98;;
60239;SDS011;46102;39.012;-7.064;2022-12-18T09:22:07;2.78;;;1.98;;
60239;SDS011;46102;39.012;-7.064;2022-12-18T09:24:08;2.72;;;2.53;;
60239;SDS011;46102;39.012;-7.064;2022-12-18T09:26:13;3.28;;;2.97;;
60239;SDS011;46102;39.012;-7.064;2022-12-18T09:28:15;2.63;;;2.05;;
60239;SDS011;46102;39.012;-7.064;2022-12-18T09:30:17;2.00;;;1.90;;
60239;SDS011;46102;39.012;-7.064;2022-12-18T09:32:18;3.35;;;1.90;;
60239;SDS011;46102;39.012;-7.064;2022-12-18T09:34:18;2.70;;;2.20;;
60239;SDS011;46102;39.012;-7.064;2022-12-18T09:36:21;3.75;;;1.98;;
60239;SDS011;46102;39.012;-7.064;2022-12-18T09:38:22;2.17;;;2.03;;
60239;SDS011;46102;39.012;-7.064;2022-12-18T09:40:25;4.20;;;2.75;;
60239;SDS011;46102;39.012;-7.064;2022-12-18T09:42:32;4.50;;;2.15;;
60239;SDS011;46102;39.012;-7.064;2022-12-18T09:44:39;1.65;;;1.55;;
60239;SDS011;46102;39.012;-7.064;2022-12-18T09:46:44;3.13;;;1.80;;
60239;SDS011;46102;39.012;-7.064;2022-12-18T09:48:49;2.78;;;1.95;;
60239;SDS011;46102;39.012;-7.064;2022-12-18T09:50:54;2.38;;;2.17;;
60239;SDS011;46102;39.012;-7.064;2022-12-18T09:52:58;4.65;;;2.80;;
60239;SDS011;46102;39.012;-7.064;2022-12-18T09:55:09;3.20;;;2.38;;
60239;SDS011;46102;39.012;-7.064;2022-12-18T09:57:20;3.03;;;2.75;;
60239;SDS011;46102;39.012;-7.064;2022-12-18T09:59:30;2.03;;;1.92;;
60239;SDS011;46102;39.012;-7.064;2022-12-18T10:01:35;2.70;;;1.90;;
60239;SDS011;46102;39.012;-7.064;2022-12-18T10:03:36;3.65;;;3.08;;
60239;SDS011;46102;39.012;-7.064;2022-12-18T10:05:53;2.08;;;1.90;;
60239;SDS011;46102;39.012;-7.064;2022-12-18T10:07:55;5.10;;;2.05;;
60239;SDS011;46102;39.012;-7.064;2022-12-18T10:10:10;2.17;;;1.98;;
60239;SDS011;46102;39.012;-7.064;2022-12-18T10:12:30;8.45;;;7.88;;
60239;SDS011;46102;39.012;-7.064;2022-12-18T10:14:50;6.72;;;6.03;;
60239;SDS011;46102;39.012;-7.064;2022-12-18T10:21:36;5.70;;;5.22;;
60239;SDS011;46102;39.012;-7.064;2022-12-18T10:25:55;1.70;;;1.60;;
60239;SDS011;46102;39.012;-7.064;2022-12-18T10:28:07;7.72;;;2.30;;
60239;SDS011;46102;39.012;-7.064;2022-12-18T10:30:13;3.38;;;3.17;;
60239;SDS011;46102;39.012;-7.064;2022-12-18T10:32:20;4.40;;;3.13;;
60239;SDS011;46102;39.012;-7.064;2022-12-18T10:34:23;3.90;;;3.63;;
60239;SDS011;46102;39.012;-7.064;2022-12-18T10:36:24;6.75;;;3.78;;
60239;SDS011;46102;39.012;-7.064;2022-12-18T10:38:29;7.80;;;6.10;;
60239;SDS011;46102;39.012;-7.064;2022-12-18T10:40:32;5.07;;;4.68;;
60239;SDS011;46102;39.012;-7.064;2022-12-18T10:42:49;6.60;;;3.40;;
60239;SDS011;46102;39.012;-7.064;2022-12-18T10:45:09;4.05;;;3.70;;
60239;SDS011;46102;39.012;-7.064;2022-12-18T10:47:13;11.60;;;7.53;;
60239;SDS011;46102;39.012;-7.064;2022-12-18T10:49:24;7.45;;;6.25;;
60239;SDS011;46102;39.012;-7.064;2022-12-18T10:53:30;13.32;;;8.35;;
60239;SDS011;46102;39.012;-7.064;2022-12-18T10:55:34;117.22;;;57.22;;
60239;SDS011;46102;39.012;-7.064;2022-12-18T10:57:39;59.88;;;32.88;;
60239;SDS011;46102;39.012;-7.064;2022-12-18T10:59:50;57.95;;;29.23;;
60239;SDS011;46102;39.012;-7.064;2022-12-18T11:01:54;20.45;;;11.32;;
60239;SDS011;46102;39.012;-7.064;2022-12-18T11:08:11;13.90;;;11.07;;
60239;SDS011;46102;39.012;-7.064;2022-12-18T11:10:25;4.40;;;3.85;;
60239;SDS011;46102;39.012;-7.064;2022-12-18T11:12:29;9.00;;;7.40;;
60239;SDS011;46102;39.012;-7.064;2022-12-18T11:14:32;4.78;;;3.40;;
60239;SDS011;46102;39.012;-7.064;2022-12-18T11:16:35;7.65;;;7.05;;
60239;SDS011;46102;39.012;-7.064;2022-12-18T11:18:42;6.50;;;4.20;;
60239;SDS011;46102;39.012;-7.064;2022-12-18T11:20:43;5.93;;;3.95;;
60239;SDS011;46102;39.012;-7.064;2022-12-18T11:22:55;5.07;;;2.33;;
60239;SDS011;46102;39.012;-7.064;2022-12-18T11:24:59;7.13;;;6.53;;
60239;SDS011;46102;39.012;-7.064;2022-12-18T11:27:17;4.50;;;2.65;;
60239;SDS011;46102;39.012;-7.064;2022-12-18T11:29:22;4.57;;;4.00;;
60239;SDS011;46102;39.012;-7.064;2022-12-18T11:31:32;5.38;;;3.63;;
60239;SDS011;46102;39.012;-7.064;2022-12-18T11:33:33;5.00;;;4.53;;
60239;SDS011;46102;39.012;-7.064;2022-12-18T11:35:47;4.63;;;2.88;;
60239;SDS011;46102;39.012;-7.064;2022-12-18T11:37:53;4.00;;;3.78;;
60239;SDS011;46102;39.012;-7.064;2022-12-18T11:40:00;3.03;;;2.83;;
60239;SDS011;46102;39.012;-7.064;2022-12-18T11:42:17;4.72;;;4.18;;
60239;SDS011;46102;39.012;-7.064;2022-12-18T11:44:28;3.47;;;3.17;;
60239;SDS011;46102;39.012;-7.064;2022-12-18T11:46:40;3.10;;;2.90;;
60239;SDS011;46102;39.012;-7.064;2022-12-18T11:49:03;8.80;;;5.75;;
60239;SDS011;46102;39.012;-7.064;2022-12-18T11:51:12;3.33;;;2.70;;
60239;SDS011;46102;39.012;-7.064;2022-12-18T11:53:19;8.13;;;5.15;;
60239;SDS011;46102;39.012;-7.064;2022-12-18T12:00:09;3.58;;;2.40;;
60239;SDS011;46102;39.012;-7.064;2022-12-18T12:06:53;4.00;;;1.20;;
60239;SDS011;46102;39.012;-7.064;2022-12-18T12:16:21;6.18;;;1.98;;
60239;SDS011;46102;39.012;-7.064;2022-12-18T12:25:30;5.43;;;1.52;;
60239;SDS011;46102;39.012;-7.064;2022-12-18T12:34:16;7.13;;;1.85;;
60239;SDS011;46102;39.012;-7.064;2022-12-18T12:36:36;2.38;;;1.67;;
60239;SDS011;46102;39.012;-7.064;2022-12-18T12:38:46;3.85;;;1.65;;
60239;SDS011;46102;39.012;-7.064;2022-12-18T12:40:58;1.35;;;1.25;;
60239;SDS011;46102;39.012;-7.064;2022-12-18T12:43:10;2.67;;;2.05;;
60239;SDS011;46102;39.012;-7.064;2022-12-18T12:45:22;4.85;;;3.20;;
60239;SDS011;46102;39.012;-7.064;2022-12-18T12:47:31;5.78;;;2.80;;
60239;SDS011;46102;39.012;-7.064;2022-12-18T12:49:35;4.47;;;2.60;;
60239;SDS011;46102;39.012;-7.064;2022-12-18T12:51:39;4.03;;;3.22;;
60239;SDS011;46102;39.012;-7.064;2022-12-18T12:53:43;3.08;;;2.25;;
60239;SDS011;46102;39.012;-7.064;2022-12-18T12:55:45;4.07;;;3.70;;
60239;SDS011;46102;39.012;-7.064;2022-12-18T12:57:48;8.27;;;3.70;;
60239;SDS011;46102;39.012;-7.064;2022-12-18T13:00:03;2.15;;;1.80;;
60239;SDS011;46102;39.012;-7.064;2022-12-18T13:04:39;19.75;;;11.20;;
60239;SDS011;46102;39.012;-7.064;2022-12-18T13:08:59;8.57;;;5.90;;
60239;SDS011;46102;39.012;-7.064;2022-12-18T13:11:01;10.50;;;4.55;;
60239;SDS011;46102;39.012;-7.064;2022-12-18T13:13:20;5.53;;;2.05;;
60239;SDS011;46102;39.012;-7.064;2022-12-18T13:15:22;14.07;;;12.57;;
60239;SDS011;46102;39.012;-7.064;2022-12-18T13:19:30;3.42;;;3.13;;
60239;SDS011;46102;39.012;-7.064;2022-12-18T13:21:32;2.53;;;1.40;;
60239;SDS011;46102;39.012;-7.064;2022-12-18T13:23:35;3.28;;;1.95;;
60239;SDS011;46102;39.012;-7.064;2022-12-18T13:25:40;5.25;;;2.45;;
60239;SDS011;46102;39.012;-7.064;2022-12-18T13:29:45;4.65;;;4.35;;
60239;SDS011;46102;39.012;-7.064;2022-12-18T13:33:49;2.83;;;2.00;;